sensor_id;sensor_type;location;lat;lon;timestamp;temperature;humidity
70734;DHT22;58320;48.804;9.252;2023-09-30T00:01:58;17.20;75.50
70734;DHT22;58320;48.804;9.252;2023-09-30T00:04:24;17.20;75.60
70734;DHT22;58320;48.804;9.252;2023-09-30T00:06:50;17.20;75.70
70734;DHT22;58320;48.804;9.252;2023-09-30T00:09:16;17.20;75.90
70734;DHT22;58320;48.804;9.252;2023-09-30T00:11:42;17.20;76.00
70734;DHT22;58320;48.804;9.252;2023-09-30T00:14:08;17.20;76.00
70734;DHT22;58320;48.804;9.252;2023-09-30T00:16:33;17.20;76.20
70734;DHT22;58320;48.804;9.252;2023-09-30T00:19:00;17.20;76.60
70734;DHT22;58320;48.804;9.252;2023-09-30T00:21:27;17.20;76.90
70734;DHT22;58320;48.804;9.252;2023-09-30T00:23:53;17.20;76.80
70734;DHT22;58320;48.804;9.252;2023-09-30T00:26:18;17.20;77.10
70734;DHT22;58320;48.804;9.252;2023-09-30T00:28:44;17.10;77.10
70734;DHT22;58320;48.804;9.252;2023-09-30T00:31:10;17.10;77.40
70734;DHT22;58320;48.804;9.252;2023-09-30T00:33:36;17.10;77.50
70734;DHT22;58320;48.804;9.252;2023-09-30T00:36:09;17.10;77.70
70734;DHT22;58320;48.804;9.252;2023-09-30T00:38:39;17.00;77.90
70734;DHT22;58320;48.804;9.252;2023-09-30T00:41:06;17.00;78.10
70734;DHT22;58320;48.804;9.252;2023-09-30T00:43:33;16.90;78.60
70734;DHT22;58320;48.804;9.252;2023-09-30T00:48:46;16.60;79.40
70734;DHT22;58320;48.804;9.252;2023-09-30T00:51:12;16.50;80.00
70734;DHT22;58320;48.804;9.252;2023-09-30T00:53:38;16.40;80.20
70734;DHT22;58320;48.804;9.252;2023-09-30T00:56:04;16.40;80.80
70734;DHT22;58320;48.804;9.252;2023-09-30T00:58:31;16.30;80.70
70734;DHT22;58320;48.804;9.252;2023-09-30T01:00:59;16.20;81.00
70734;DHT22;58320;48.804;9.252;2023-09-30T01:03:25;16.20;81.50
70734;DHT22;58320;48.804;9.252;2023-09-30T01:05:51;16.10;81.90
70734;DHT22;58320;48.804;9.252;2023-09-30T01:08:18;16.00;82.10
70734;DHT22;58320;48.804;9.252;2023-09-30T01:10:45;15.90;82.70
70734;DHT22;58320;48.804;9.252;2023-09-30T01:13:11;15.90;82.90
70734;DHT22;58320;48.804;9.252;2023-09-30T01:15:37;15.80;83.50
70734;DHT22;58320;48.804;9.252;2023-09-30T01:18:03;15.80;83.60
70734;DHT22;58320;48.804;9.252;2023-09-30T01:20:29;15.70;83.50
70734;DHT22;58320;48.804;9.252;2023-09-30T01:22:57;15.70;83.90
70734;DHT22;58320;48.804;9.252;2023-09-30T01:25:24;15.60;84.00
70734;DHT22;58320;48.804;9.252;2023-09-30T01:27:50;15.60;84.20
70734;DHT22;58320;48.804;9.252;2023-09-30T01:30:17;15.60;84.40
70734;DHT22;58320;48.804;9.252;2023-09-30T01:32:43;15.50;84.50
70734;DHT22;58320;48.804;9.252;2023-09-30T01:35:09;15.50;84.80
70734;DHT22;58320;48.804;9.252;2023-09-30T01:37:35;15.40;84.80
70734;DHT22;58320;48.804;9.252;2023-09-30T01:40:02;15.40;84.80
70734;DHT22;58320;48.804;9.252;2023-09-30T01:42:37;15.40;84.70
70734;DHT22;58320;48.804;9.252;2023-09-30T01:45:04;15.40;85.00
70734;DHT22;58320;48.804;9.252;2023-09-30T01:47:30;15.30;85.10
70734;DHT22;58320;48.804;9.252;2023-09-30T01:49:55;15.30;85.30
70734;DHT22;58320;48.804;9.252;2023-09-30T01:52:21;15.30;85.30
70734;DHT22;58320;48.804;9.252;2023-09-30T01:54:47;15.20;85.50
70734;DHT22;58320;48.804;9.252;2023-09-30T01:57:13;15.20;86.10
70734;DHT22;58320;48.804;9.252;2023-09-30T01:59:38;15.10;86.90
70734;DHT22;58320;48.804;9.252;2023-09-30T02:02:04;15.10;86.90
70734;DHT22;58320;48.804;9.252;2023-09-30T02:04:30;15.10;86.90
70734;DHT22;58320;48.804;9.252;2023-09-30T02:06:56;15.10;87.10
70734;DHT22;58320;48.804;9.252;2023-09-30T02:09:22;15.00;87.40
70734;DHT22;58320;48.804;9.252;2023-09-30T02:11:47;15.00;87.90
70734;DHT22;58320;48.804;9.252;2023-09-30T02:14:14;15.00;87.90
70734;DHT22;58320;48.804;9.252;2023-09-30T02:16:39;15.00;88.10
70734;DHT22;58320;48.804;9.252;2023-09-30T02:19:05;14.90;88.20
70734;DHT22;58320;48.804;9.252;2023-09-30T02:21:32;14.90;88.40
70734;DHT22;58320;48.804;9.252;2023-09-30T02:23:57;14.90;88.60
70734;DHT22;58320;48.804;9.252;2023-09-30T02:26:23;14.90;88.80
70734;DHT22;58320;48.804;9.252;2023-09-30T02:28:51;14.80;89.00
70734;DHT22;58320;48.804;9.252;2023-09-30T02:31:18;14.80;89.00
70734;DHT22;58320;48.804;9.252;2023-09-30T02:33:44;14.80;89.20
70734;DHT22;58320;48.804;9.252;2023-09-30T02:36:10;14.80;89.40
70734;DHT22;58320;48.804;9.252;2023-09-30T02:38:37;14.70;89.50
70734;DHT22;58320;48.804;9.252;2023-09-30T02:41:03;14.80;89.50
70734;DHT22;58320;48.804;9.252;2023-09-30T02:43:29;14.80;89.50
70734;DHT22;58320;48.804;9.252;2023-09-30T02:45:55;14.70;89.70
70734;DHT22;58320;48.804;9.252;2023-09-30T02:48:21;14.80;89.90
70734;DHT22;58320;48.804;9.252;2023-09-30T02:50:46;14.80;89.80
70734;DHT22;58320;48.804;9.252;2023-09-30T02:53:13;14.90;89.70
70734;DHT22;58320;48.804;9.252;2023-09-30T02:55:39;14.90;89.40
70734;DHT22;58320;48.804;9.252;2023-09-30T02:58:07;15.00;89.20
70734;DHT22;58320;48.804;9.252;2023-09-30T03:00:36;15.10;89.00
70734;DHT22;58320;48.804;9.252;2023-09-30T03:03:03;15.10;88.80
70734;DHT22;58320;48.804;9.252;2023-09-30T03:05:30;15.10;88.40
70734;DHT22;58320;48.804;9.252;2023-09-30T03:07:59;15.10;88.20
70734;DHT22;58320;48.804;9.252;2023-09-30T03:10:26;15.20;88.10
70734;DHT22;58320;48.804;9.252;2023-09-30T03:12:56;15.20;87.90
70734;DHT22;58320;48.804;9.252;2023-09-30T03:15:27;15.20;87.70
70734;DHT22;58320;48.804;9.252;2023-09-30T03:17:56;15.20;87.50
70734;DHT22;58320;48.804;9.252;2023-09-30T03:20:22;15.20;87.40
70734;DHT22;58320;48.804;9.252;2023-09-30T03:22:50;15.20;87.30
70734;DHT22;58320;48.804;9.252;2023-09-30T03:25:19;15.20;87.30
70734;DHT22;58320;48.804;9.252;2023-09-30T03:27:46;15.10;87.20
70734;DHT22;58320;48.804;9.252;2023-09-30T03:30:14;15.10;87.30
70734;DHT22;58320;48.804;9.252;2023-09-30T03:32:41;15.10;87.30
70734;DHT22;58320;48.804;9.252;2023-09-30T03:35:11;15.10;87.20
70734;DHT22;58320;48.804;9.252;2023-09-30T03:37:45;15.10;87.30
70734;DHT22;58320;48.804;9.252;2023-09-30T03:40:13;15.20;87.40
70734;DHT22;58320;48.804;9.252;2023-09-30T03:42:41;15.20;87.20
70734;DHT22;58320;48.804;9.252;2023-09-30T03:45:10;15.30;87.00
70734;DHT22;58320;48.804;9.252;2023-09-30T03:47:37;15.30;86.90
70734;DHT22;58320;48.804;9.252;2023-09-30T03:50:04;15.40;86.70
70734;DHT22;58320;48.804;9.252;2023-09-30T03:52:33;15.40;86.40
70734;DHT22;58320;48.804;9.252;2023-09-30T03:55:02;15.40;86.50
70734;DHT22;58320;48.804;9.252;2023-09-30T03:57:32;15.40;86.50
70734;DHT22;58320;48.804;9.252;2023-09-30T03:59:59;15.40;86.30
70734;DHT22;58320;48.804;9.252;2023-09-30T04:02:26;15.40;86.30
70734;DHT22;58320;48.804;9.252;2023-09-30T04:04:51;15.40;86.10
70734;DHT22;58320;48.804;9.252;2023-09-30T04:07:19;15.40;86.10
70734;DHT22;58320;48.804;9.252;2023-09-30T04:09:46;15.30;86.20
70734;DHT22;58320;48.804;9.252;2023-09-30T04:12:12;15.20;86.50
70734;DHT22;58320;48.804;9.252;2023-09-30T04:14:37;15.20;86.70
70734;DHT22;58320;48.804;9.252;2023-09-30T04:17:04;15.20;86.90
70734;DHT22;58320;48.804;9.252;2023-09-30T04:19:30;15.20;87.10
70734;DHT22;58320;48.804;9.252;2023-09-30T04:21:56;15.10;87.40
70734;DHT22;58320;48.804;9.252;2023-09-30T04:24:22;15.20;87.30
70734;DHT22;58320;48.804;9.252;2023-09-30T04:26:48;15.20;87.20
70734;DHT22;58320;48.804;9.252;2023-09-30T04:29:16;15.20;87.40
70734;DHT22;58320;48.804;9.252;2023-09-30T04:31:41;15.20;87.40
70734;DHT22;58320;48.804;9.252;2023-09-30T04:34:07;15.20;87.40
70734;DHT22;58320;48.804;9.252;2023-09-30T04:36:33;15.20;87.40
70734;DHT22;58320;48.804;9.252;2023-09-30T04:39:00;15.20;87.50
70734;DHT22;58320;48.804;9.252;2023-09-30T04:41:26;15.10;87.50
70734;DHT22;58320;48.804;9.252;2023-09-30T04:43:52;15.10;87.70
70734;DHT22;58320;48.804;9.252;2023-09-30T04:46:18;15.10;87.80
70734;DHT22;58320;48.804;9.252;2023-09-30T04:48:46;15.10;87.90
70734;DHT22;58320;48.804;9.252;2023-09-30T04:51:14;15.20;87.80
70734;DHT22;58320;48.804;9.252;2023-09-30T04:53:42;15.20;87.60
70734;DHT22;58320;48.804;9.252;2023-09-30T04:56:08;15.20;87.50
70734;DHT22;58320;48.804;9.252;2023-09-30T04:58:33;15.20;87.50
70734;DHT22;58320;48.804;9.252;2023-09-30T05:00:59;15.20;87.50
70734;DHT22;58320;48.804;9.252;2023-09-30T05:03:25;15.20;87.50
70734;DHT22;58320;48.804;9.252;2023-09-30T05:05:52;15.20;87.70
70734;DHT22;58320;48.804;9.252;2023-09-30T05:08:23;15.20;87.70
70734;DHT22;58320;48.804;9.252;2023-09-30T05:10:49;15.20;87.40
70734;DHT22;58320;48.804;9.252;2023-09-30T05:13:15;15.20;87.40
70734;DHT22;58320;48.804;9.252;2023-09-30T05:15:41;15.20;87.50
70734;DHT22;58320;48.804;9.252;2023-09-30T05:18:07;15.20;87.50
70734;DHT22;58320;48.804;9.252;2023-09-30T05:20:35;15.20;87.50
70734;DHT22;58320;48.804;9.252;2023-09-30T05:23:02;15.20;87.60
70734;DHT22;58320;48.804;9.252;2023-09-30T05:25:28;15.10;87.60
70734;DHT22;58320;48.804;9.252;2023-09-30T05:27:54;15.10;87.80
70734;DHT22;58320;48.804;9.252;2023-09-30T05:30:20;15.10;88.00
70734;DHT22;58320;48.804;9.252;2023-09-30T05:32:46;15.10;88.10
70734;DHT22;58320;48.804;9.252;2023-09-30T05:35:12;15.10;88.30
70734;DHT22;58320;48.804;9.252;2023-09-30T05:37:42;15.10;88.40
70734;DHT22;58320;48.804;9.252;2023-09-30T05:40:09;15.00;88.80
70734;DHT22;58320;48.804;9.252;2023-09-30T05:42:56;15.10;88.80
70734;DHT22;58320;48.804;9.252;2023-09-30T05:45:31;15.10;88.70
70734;DHT22;58320;48.804;9.252;2023-09-30T05:48:04;15.10;88.50
70734;DHT22;58320;48.804;9.252;2023-09-30T05:50:34;15.20;88.30
70734;DHT22;58320;48.804;9.252;2023-09-30T05:53:02;15.30;88.00
70734;DHT22;58320;48.804;9.252;2023-09-30T05:55:30;15.40;87.70
70734;DHT22;58320;48.804;9.252;2023-09-30T05:57:55;15.40;87.40
70734;DHT22;58320;48.804;9.252;2023-09-30T06:00:22;15.50;87.10
70734;DHT22;58320;48.804;9.252;2023-09-30T06:02:49;15.60;86.80
70734;DHT22;58320;48.804;9.252;2023-09-30T06:05:17;15.60;86.40
70734;DHT22;58320;48.804;9.252;2023-09-30T06:07:45;15.70;86.20
70734;DHT22;58320;48.804;9.252;2023-09-30T06:10:12;15.80;86.10
70734;DHT22;58320;48.804;9.252;2023-09-30T06:12:41;15.90;85.70
70734;DHT22;58320;48.804;9.252;2023-09-30T06:15:07;15.90;85.20
70734;DHT22;58320;48.804;9.252;2023-09-30T06:17:33;15.90;84.90
70734;DHT22;58320;48.804;9.252;2023-09-30T06:19:59;15.90;84.50
70734;DHT22;58320;48.804;9.252;2023-09-30T06:22:33;16.00;84.50
70734;DHT22;58320;48.804;9.252;2023-09-30T06:24:59;16.00;83.90
70734;DHT22;58320;48.804;9.252;2023-09-30T06:27:25;16.10;83.60
70734;DHT22;58320;48.804;9.252;2023-09-30T06:29:51;16.20;83.40
70734;DHT22;58320;48.804;9.252;2023-09-30T06:32:17;16.30;82.70
70734;DHT22;58320;48.804;9.252;2023-09-30T06:34:42;16.40;82.30
70734;DHT22;58320;48.804;9.252;2023-09-30T06:37:08;16.50;81.90
70734;DHT22;58320;48.804;9.252;2023-09-30T06:39:34;16.50;81.60
70734;DHT22;58320;48.804;9.252;2023-09-30T06:42:00;16.50;81.30
70734;DHT22;58320;48.804;9.252;2023-09-30T06:44:25;16.40;81.00
70734;DHT22;58320;48.804;9.252;2023-09-30T06:46:53;16.40;80.50
70734;DHT22;58320;48.804;9.252;2023-09-30T06:49:20;16.40;80.60
70734;DHT22;58320;48.804;9.252;2023-09-30T06:51:46;16.40;80.40
70734;DHT22;58320;48.804;9.252;2023-09-30T06:54:13;16.60;80.20
70734;DHT22;58320;48.804;9.252;2023-09-30T06:56:38;16.70;79.90
70734;DHT22;58320;48.804;9.252;2023-09-30T06:59:04;16.90;78.90
70734;DHT22;58320;48.804;9.252;2023-09-30T07:01:31;17.00;78.00
70734;DHT22;58320;48.804;9.252;2023-09-30T07:03:57;17.00;77.60
70734;DHT22;58320;48.804;9.252;2023-09-30T07:06:26;17.00;78.00
70734;DHT22;58320;48.804;9.252;2023-09-30T07:08:52;16.90;77.90
70734;DHT22;58320;48.804;9.252;2023-09-30T07:11:28;16.90;78.30
70734;DHT22;58320;48.804;9.252;2023-09-30T07:13:55;16.80;78.20
70734;DHT22;58320;48.804;9.252;2023-09-30T07:16:21;16.90;78.50
70734;DHT22;58320;48.804;9.252;2023-09-30T07:18:46;17.00;78.10
70734;DHT22;58320;48.804;9.252;2023-09-30T07:21:13;17.10;77.80
70734;DHT22;58320;48.804;9.252;2023-09-30T07:23:39;17.20;77.50
70734;DHT22;58320;48.804;9.252;2023-09-30T07:26:06;17.10;77.20
70734;DHT22;58320;48.804;9.252;2023-09-30T07:28:33;17.10;77.50
70734;DHT22;58320;48.804;9.252;2023-09-30T07:30:59;17.10;78.00
70734;DHT22;58320;48.804;9.252;2023-09-30T07:33:25;17.10;78.00
70734;DHT22;58320;48.804;9.252;2023-09-30T07:35:50;17.10;78.00
70734;DHT22;58320;48.804;9.252;2023-09-30T07:38:16;17.10;77.50
70734;DHT22;58320;48.804;9.252;2023-09-30T07:40:42;17.00;77.40
70734;DHT22;58320;48.804;9.252;2023-09-30T07:43:08;16.90;77.70
70734;DHT22;58320;48.804;9.252;2023-09-30T07:45:34;16.80;78.00
70734;DHT22;58320;48.804;9.252;2023-09-30T07:48:00;16.80;78.40
70734;DHT22;58320;48.804;9.252;2023-09-30T07:50:30;16.80;78.00
70734;DHT22;58320;48.804;9.252;2023-09-30T07:52:56;16.70;78.40
70734;DHT22;58320;48.804;9.252;2023-09-30T07:55:23;16.90;78.10
70734;DHT22;58320;48.804;9.252;2023-09-30T07:57:49;17.10;77.40
70734;DHT22;58320;48.804;9.252;2023-09-30T08:00:15;17.30;77.00
70734;DHT22;58320;48.804;9.252;2023-09-30T08:02:42;17.40;76.20
70734;DHT22;58320;48.804;9.252;2023-09-30T08:05:09;17.40;76.20
70734;DHT22;58320;48.804;9.252;2023-09-30T08:07:35;17.40;76.00
70734;DHT22;58320;48.804;9.252;2023-09-30T08:10:02;17.40;75.80
70734;DHT22;58320;48.804;9.252;2023-09-30T08:12:32;17.50;75.90
70734;DHT22;58320;48.804;9.252;2023-09-30T08:14:58;17.70;75.30
70734;DHT22;58320;48.804;9.252;2023-09-30T08:17:24;18.00;74.80
70734;DHT22;58320;48.804;9.252;2023-09-30T08:19:49;18.20;73.70
70734;DHT22;58320;48.804;9.252;2023-09-30T08:22:15;18.40;72.80
70734;DHT22;58320;48.804;9.252;2023-09-30T08:24:41;18.60;72.40
70734;DHT22;58320;48.804;9.252;2023-09-30T08:27:07;18.80;71.30
70734;DHT22;58320;48.804;9.252;2023-09-30T08:29:34;18.90;69.90
70734;DHT22;58320;48.804;9.252;2023-09-30T08:32:02;18.80;69.90
70734;DHT22;58320;48.804;9.252;2023-09-30T08:34:29;18.70;69.50
70734;DHT22;58320;48.804;9.252;2023-09-30T08:36:55;18.50;70.10
70734;DHT22;58320;48.804;9.252;2023-09-30T08:39:21;18.30;71.10
70734;DHT22;58320;48.804;9.252;2023-09-30T08:41:46;18.40;72.00
70734;DHT22;58320;48.804;9.252;2023-09-30T08:44:12;18.50;71.20
70734;DHT22;58320;48.804;9.252;2023-09-30T08:46:39;18.70;71.30
70734;DHT22;58320;48.804;9.252;2023-09-30T08:49:06;19.00;70.50
70734;DHT22;58320;48.804;9.252;2023-09-30T08:51:32;19.10;69.10
70734;DHT22;58320;48.804;9.252;2023-09-30T08:53:59;19.20;69.90
70734;DHT22;58320;48.804;9.252;2023-09-30T08:56:28;19.40;69.20
70734;DHT22;58320;48.804;9.252;2023-09-30T08:58:57;19.80;68.10
70734;DHT22;58320;48.804;9.252;2023-09-30T09:01:27;19.90;67.30
70734;DHT22;58320;48.804;9.252;2023-09-30T09:03:54;20.00;65.20
70734;DHT22;58320;48.804;9.252;2023-09-30T09:06:24;19.90;66.30
70734;DHT22;58320;48.804;9.252;2023-09-30T09:08:50;19.80;67.20
70734;DHT22;58320;48.804;9.252;2023-09-30T09:11:17;19.80;67.10
70734;DHT22;58320;48.804;9.252;2023-09-30T09:13:55;20.00;66.00
70734;DHT22;58320;48.804;9.252;2023-09-30T09:16:22;19.90;65.80
70734;DHT22;58320;48.804;9.252;2023-09-30T09:18:49;20.10;65.20
70734;DHT22;58320;48.804;9.252;2023-09-30T09:21:18;20.10;64.80
70734;DHT22;58320;48.804;9.252;2023-09-30T09:23:47;20.20;65.20
70734;DHT22;58320;48.804;9.252;2023-09-30T09:26:24;20.30;65.10
70734;DHT22;58320;48.804;9.252;2023-09-30T09:29:00;20.50;63.40
70734;DHT22;58320;48.804;9.252;2023-09-30T09:31:28;20.40;64.20
70734;DHT22;58320;48.804;9.252;2023-09-30T09:33:55;20.40;64.50
70734;DHT22;58320;48.804;9.252;2023-09-30T09:36:44;20.30;63.80
70734;DHT22;58320;48.804;9.252;2023-09-30T09:39:11;20.30;64.20
70734;DHT22;58320;48.804;9.252;2023-09-30T09:41:52;20.40;63.50
70734;DHT22;58320;48.804;9.252;2023-09-30T09:44:22;20.30;63.30
70734;DHT22;58320;48.804;9.252;2023-09-30T09:46:49;20.30;64.10
70734;DHT22;58320;48.804;9.252;2023-09-30T09:49:19;20.60;62.70
70734;DHT22;58320;48.804;9.252;2023-09-30T09:51:46;20.90;62.80
70734;DHT22;58320;48.804;9.252;2023-09-30T09:54:14;21.30;61.10
70734;DHT22;58320;48.804;9.252;2023-09-30T09:56:45;21.50;59.50
70734;DHT22;58320;48.804;9.252;2023-09-30T09:59:14;21.80;59.40
70734;DHT22;58320;48.804;9.252;2023-09-30T10:01:40;21.90;57.70
70734;DHT22;58320;48.804;9.252;2023-09-30T10:04:07;21.90;58.00
70734;DHT22;58320;48.804;9.252;2023-09-30T10:06:36;22.00;57.60
70734;DHT22;58320;48.804;9.252;2023-09-30T10:09:06;22.00;57.40
70734;DHT22;58320;48.804;9.252;2023-09-30T10:11:35;21.90;57.50
70734;DHT22;58320;48.804;9.252;2023-09-30T10:14:01;22.10;58.20
70734;DHT22;58320;48.804;9.252;2023-09-30T10:21:39;23.00;54.70
70734;DHT22;58320;48.804;9.252;2023-09-30T10:35:20;23.70;52.70
70734;DHT22;58320;48.804;9.252;2023-09-30T10:37:47;23.70;52.70
70734;DHT22;58320;48.804;9.252;2023-09-30T10:40:30;23.80;53.50
70734;DHT22;58320;48.804;9.252;2023-09-30T10:42:57;23.70;52.10
70734;DHT22;58320;48.804;9.252;2023-09-30T10:45:43;23.50;53.70
70734;DHT22;58320;48.804;9.252;2023-09-30T10:50:52;23.70;52.90
70734;DHT22;58320;48.804;9.252;2023-09-30T10:53:19;23.60;51.60
70734;DHT22;58320;48.804;9.252;2023-09-30T10:55:46;23.30;52.80
70734;DHT22;58320;48.804;9.252;2023-09-30T10:58:13;23.20;52.30
70734;DHT22;58320;48.804;9.252;2023-09-30T11:00:39;23.40;53.00
70734;DHT22;58320;48.804;9.252;2023-09-30T11:03:06;23.50;52.30
70734;DHT22;58320;48.804;9.252;2023-09-30T11:05:32;23.50;52.50
70734;DHT22;58320;48.804;9.252;2023-09-30T11:08:02;23.40;52.00
70734;DHT22;58320;48.804;9.252;2023-09-30T11:10:29;23.10;52.30
70734;DHT22;58320;48.804;9.252;2023-09-30T11:12:56;22.70;52.10
70734;DHT22;58320;48.804;9.252;2023-09-30T11:15:22;22.20;52.90
70734;DHT22;58320;48.804;9.252;2023-09-30T11:17:49;21.80;53.60
70734;DHT22;58320;48.804;9.252;2023-09-30T11:20:17;21.90;54.50
70734;DHT22;58320;48.804;9.252;2023-09-30T11:22:44;22.20;53.00
70734;DHT22;58320;48.804;9.252;2023-09-30T11:25:18;23.00;52.20
70734;DHT22;58320;48.804;9.252;2023-09-30T11:27:45;23.80;49.70
70734;DHT22;58320;48.804;9.252;2023-09-30T11:30:12;24.20;49.20
70734;DHT22;58320;48.804;9.252;2023-09-30T11:32:39;24.90;47.20
70734;DHT22;58320;48.804;9.252;2023-09-30T11:35:25;25.40;47.30
70734;DHT22;58320;48.804;9.252;2023-09-30T11:37:51;25.80;45.70
70734;DHT22;58320;48.804;9.252;2023-09-30T11:40:17;26.20;44.90
70734;DHT22;58320;48.804;9.252;2023-09-30T11:43:08;26.50;44.80
70734;DHT22;58320;48.804;9.252;2023-09-30T11:45:36;26.60;43.80
70734;DHT22;58320;48.804;9.252;2023-09-30T11:48:06;26.80;44.30
70734;DHT22;58320;48.804;9.252;2023-09-30T11:50:48;26.70;43.30
70734;DHT22;58320;48.804;9.252;2023-09-30T11:53:17;26.10;43.90
70734;DHT22;58320;48.804;9.252;2023-09-30T11:55:43;25.60;44.20
70734;DHT22;58320;48.804;9.252;2023-09-30T11:58:09;25.20;45.40
70734;DHT22;58320;48.804;9.252;2023-09-30T12:00:41;24.70;46.70
70734;DHT22;58320;48.804;9.252;2023-09-30T12:03:07;24.00;46.50
70734;DHT22;58320;48.804;9.252;2023-09-30T12:05:32;23.50;47.60
70734;DHT22;58320;48.804;9.252;2023-09-30T12:07:58;23.10;47.90
70734;DHT22;58320;48.804;9.252;2023-09-30T12:10:24;22.60;49.10
70734;DHT22;58320;48.804;9.252;2023-09-30T12:12:51;22.30;50.60
70734;DHT22;58320;48.804;9.252;2023-09-30T12:15:17;22.30;51.50
70734;DHT22;58320;48.804;9.252;2023-09-30T12:17:42;22.30;51.20
70734;DHT22;58320;48.804;9.252;2023-09-30T12:20:08;22.30;51.60
70734;DHT22;58320;48.804;9.252;2023-09-30T12:22:34;22.50;51.40
70734;DHT22;58320;48.804;9.252;2023-09-30T12:25:02;23.20;50.60
70734;DHT22;58320;48.804;9.252;2023-09-30T12:27:28;24.20;48.90
70734;DHT22;58320;48.804;9.252;2023-09-30T12:29:54;25.20;47.50
70734;DHT22;58320;48.804;9.252;2023-09-30T12:32:20;26.10;45.60
70734;DHT22;58320;48.804;9.252;2023-09-30T12:34:46;26.70;44.40
70734;DHT22;58320;48.804;9.252;2023-09-30T12:37:12;27.10;43.20
70734;DHT22;58320;48.804;9.252;2023-09-30T12:39:38;27.20;41.30
70734;DHT22;58320;48.804;9.252;2023-09-30T12:42:04;27.00;40.90
70734;DHT22;58320;48.804;9.252;2023-09-30T12:44:34;27.00;41.60
70734;DHT22;58320;48.804;9.252;2023-09-30T12:46:59;26.90;40.50
70734;DHT22;58320;48.804;9.252;2023-09-30T12:49:25;26.30;41.80
70734;DHT22;58320;48.804;9.252;2023-09-30T12:51:51;26.20;41.90
70734;DHT22;58320;48.804;9.252;2023-09-30T12:54:17;26.40;41.10
70734;DHT22;58320;48.804;9.252;2023-09-30T12:56:43;26.50;41.30
70734;DHT22;58320;48.804;9.252;2023-09-30T12:59:10;26.70;41.20
70734;DHT22;58320;48.804;9.252;2023-09-30T13:01:36;26.70;40.90
70734;DHT22;58320;48.804;9.252;2023-09-30T13:04:02;26.40;42.60
70734;DHT22;58320;48.804;9.252;2023-09-30T13:06:28;26.30;43.10
70734;DHT22;58320;48.804;9.252;2023-09-30T13:08:54;26.40;42.10
70734;DHT22;58320;48.804;9.252;2023-09-30T13:11:20;26.50;41.20
70734;DHT22;58320;48.804;9.252;2023-09-30T13:13:45;26.40;41.30
70734;DHT22;58320;48.804;9.252;2023-09-30T13:16:11;26.50;42.00
70734;DHT22;58320;48.804;9.252;2023-09-30T13:18:37;26.30;41.40
70734;DHT22;58320;48.804;9.252;2023-09-30T13:21:03;26.10;42.60
70734;DHT22;58320;48.804;9.252;2023-09-30T13:23:31;26.00;44.00
70734;DHT22;58320;48.804;9.252;2023-09-30T13:25:57;26.10;42.80
70734;DHT22;58320;48.804;9.252;2023-09-30T13:28:23;26.20;43.60
70734;DHT22;58320;48.804;9.252;2023-09-30T13:30:49;26.20;44.00
70734;DHT22;58320;48.804;9.252;2023-09-30T13:33:14;26.50;42.20
70734;DHT22;58320;48.804;9.252;2023-09-30T13:35:40;26.30;42.80
70734;DHT22;58320;48.804;9.252;2023-09-30T13:38:06;26.10;43.60
70734;DHT22;58320;48.804;9.252;2023-09-30T13:40:31;26.00;43.10
70734;DHT22;58320;48.804;9.252;2023-09-30T13:42:57;25.90;43.50
70734;DHT22;58320;48.804;9.252;2023-09-30T13:45:24;25.50;44.00
70734;DHT22;58320;48.804;9.252;2023-09-30T13:47:50;25.20;45.00
70734;DHT22;58320;48.804;9.252;2023-09-30T13:50:15;25.10;46.10
70734;DHT22;58320;48.804;9.252;2023-09-30T13:52:41;25.20;44.60
70734;DHT22;58320;48.804;9.252;2023-09-30T13:55:07;25.40;44.80
70734;DHT22;58320;48.804;9.252;2023-09-30T13:57:34;25.80;44.10
70734;DHT22;58320;48.804;9.252;2023-09-30T14:00:01;26.10;43.10
70734;DHT22;58320;48.804;9.252;2023-09-30T14:02:29;26.40;42.50
70734;DHT22;58320;48.804;9.252;2023-09-30T14:04:54;26.50;41.40
70734;DHT22;58320;48.804;9.252;2023-09-30T14:07:20;25.90;42.10
70734;DHT22;58320;48.804;9.252;2023-09-30T14:09:46;25.40;43.10
70734;DHT22;58320;48.804;9.252;2023-09-30T14:12:13;25.10;44.60
70734;DHT22;58320;48.804;9.252;2023-09-30T14:14:38;24.90;45.40
70734;DHT22;58320;48.804;9.252;2023-09-30T14:17:04;24.90;45.50
70734;DHT22;58320;48.804;9.252;2023-09-30T14:19:35;24.90;44.80
70734;DHT22;58320;48.804;9.252;2023-09-30T14:22:01;25.00;44.60
70734;DHT22;58320;48.804;9.252;2023-09-30T14:24:27;25.20;44.90
70734;DHT22;58320;48.804;9.252;2023-09-30T14:26:53;25.30;44.90
70734;DHT22;58320;48.804;9.252;2023-09-30T14:29:21;25.30;44.10
70734;DHT22;58320;48.804;9.252;2023-09-30T14:31:46;25.10;45.20
70734;DHT22;58320;48.804;9.252;2023-09-30T14:34:12;24.80;45.90
70734;DHT22;58320;48.804;9.252;2023-09-30T14:36:40;24.60;45.80
70734;DHT22;58320;48.804;9.252;2023-09-30T14:39:06;24.50;46.00
70734;DHT22;58320;48.804;9.252;2023-09-30T14:41:32;24.50;46.70
70734;DHT22;58320;48.804;9.252;2023-09-30T14:43:58;24.50;46.40
70734;DHT22;58320;48.804;9.252;2023-09-30T14:46:24;24.60;45.20
70734;DHT22;58320;48.804;9.252;2023-09-30T14:48:49;24.50;45.50
70734;DHT22;58320;48.804;9.252;2023-09-30T14:51:15;24.30;46.20
70734;DHT22;58320;48.804;9.252;2023-09-30T14:53:42;24.20;46.40
70734;DHT22;58320;48.804;9.252;2023-09-30T14:56:17;24.00;46.50
70734;DHT22;58320;48.804;9.252;2023-09-30T14:58:44;23.80;47.00
70734;DHT22;58320;48.804;9.252;2023-09-30T15:01:11;23.60;47.30
70734;DHT22;58320;48.804;9.252;2023-09-30T15:03:38;23.40;47.00
70734;DHT22;58320;48.804;9.252;2023-09-30T15:06:05;23.20;47.50
70734;DHT22;58320;48.804;9.252;2023-09-30T15:08:32;23.20;47.50
70734;DHT22;58320;48.804;9.252;2023-09-30T15:11:02;23.30;47.70
70734;DHT22;58320;48.804;9.252;2023-09-30T15:13:28;23.40;47.10
70734;DHT22;58320;48.804;9.252;2023-09-30T15:15:55;23.60;46.60
70734;DHT22;58320;48.804;9.252;2023-09-30T15:18:21;23.40;46.80
70734;DHT22;58320;48.804;9.252;2023-09-30T15:20:49;23.40;47.80
70734;DHT22;58320;48.804;9.252;2023-09-30T15:23:15;23.20;47.10
70734;DHT22;58320;48.804;9.252;2023-09-30T15:25:42;23.00;48.40
70734;DHT22;58320;48.804;9.252;2023-09-30T15:28:12;22.80;48.40
70734;DHT22;58320;48.804;9.252;2023-09-30T15:30:39;22.70;49.10
70734;DHT22;58320;48.804;9.252;2023-09-30T15:33:05;22.70;48.20
70734;DHT22;58320;48.804;9.252;2023-09-30T15:35:31;22.40;48.70
70734;DHT22;58320;48.804;9.252;2023-09-30T15:37:57;22.30;48.80
70734;DHT22;58320;48.804;9.252;2023-09-30T15:40:24;22.10;49.20
70734;DHT22;58320;48.804;9.252;2023-09-30T15:42:50;21.90;49.90
70734;DHT22;58320;48.804;9.252;2023-09-30T15:45:16;21.90;50.10
70734;DHT22;58320;48.804;9.252;2023-09-30T15:47:43;21.80;50.50
70734;DHT22;58320;48.804;9.252;2023-09-30T15:50:10;21.70;50.30
70734;DHT22;58320;48.804;9.252;2023-09-30T15:52:37;21.70;50.80